createdAt,value
2023-03-23T15:58:35.760Z,30.54
2023-03-23T16:01:08.632Z,30.78
2023-03-23T16:03:42.501Z,31.12
2023-03-23T16:06:23.928Z,31.49
2023-03-23T16:08:55.236Z,31.84
2023-03-23T16:11:27.579Z,32.01
2023-03-23T16:13:56.215Z,32.40
2023-03-23T16:16:33.070Z,32.74
2023-03-23T16:19:06.789Z,32.93
2023-03-23T16:21:36.573Z,33.21
2023-03-23T16:24:05.049Z,33.61
2023-03-23T16:26:33.430Z,33.86
2023-03-23T16:29:13.887Z,33.98
2023-03-23T16:31:48.514Z,34.23
2023-03-23T16:34:16.876Z,34.61
2023-03-23T16:36:45.104Z,34.93
2023-03-23T16:39:16.026Z,35.03
2023-03-23T16:41:44.100Z,35.17
2023-03-23T16:44:14.810Z,35.36
2023-03-23T16:46:43.144Z,35.57
2023-03-23T16:49:11.882Z,35.72
2023-03-23T16:51:42.962Z,36.27
2023-03-23T16:54:11.607Z,36.58
2023-03-23T16:56:49.994Z,36.99
2023-03-23T16:59:18.401Z,37.54
2023-03-23T17:01:46.852Z,37.98
2023-03-23T17:04:15.874Z,38.77
2023-03-23T17:06:46.212Z,39.40
2023-03-23T17:09:14.799Z,39.59
2023-03-23T17:11:43.831Z,39.77
2023-03-23T17:14:12.268Z,39.78
2023-03-23T17:16:42.886Z,39.54
2023-03-23T17:19:17.188Z,39.31
2023-03-23T17:21:45.696Z,39.05
2023-03-23T17:24:20.831Z,39.02
2023-03-23T17:26:49.578Z,38.99
2023-03-23T17:29:18.049Z,39.19
2023-03-23T17:31:50.520Z,39.26
2023-03-23T17:34:19.440Z,39.35
2023-03-23T17:36:51.844Z,39.57
2023-03-23T17:39:20.018Z,39.70
2023-03-23T17:41:48.546Z,40.00
2023-03-23T17:44:16.888Z,40.39
2023-03-23T17:46:46.492Z,40.44
2023-03-23T17:49:14.967Z,40.75
2023-03-23T17:51:45.651Z,41.24
2023-03-23T17:54:14.308Z,41.81
2023-03-23T17:56:42.896Z,42.26
2023-03-23T17:59:11.513Z,42.54
2023-03-23T18:01:39.479Z,42.72
2023-03-23T18:04:08.214Z,42.71
2023-03-23T18:06:36.254Z,42.71
2023-03-23T18:09:05.765Z,42.91
2023-03-23T18:11:35.111Z,43.13
2023-03-23T18:14:03.366Z,43.11
2023-03-23T18:16:35.093Z,43.51
2023-03-23T18:19:06.663Z,43.51
2023-03-23T18:21:35.086Z,43.51
2023-03-23T18:24:08.386Z,43.31
2023-03-23T18:26:36.941Z,43.30
2023-03-23T18:29:04.939Z,43.40
2023-03-23T18:31:34.362Z,43.36
2023-03-23T18:34:02.591Z,43.36
2023-03-23T18:36:32.267Z,43.37
2023-03-23T18:39:00.786Z,43.56
2023-03-23T18:41:29.167Z,43.79
2023-03-23T18:43:57.877Z,43.99
2023-03-23T18:46:28.058Z,44.03
2023-03-23T18:48:56.343Z,44.31
2023-03-23T18:51:26.182Z,44.39
2023-03-23T18:53:55.196Z,44.27
2023-03-23T18:56:23.368Z,44.29
2023-03-23T18:58:53.611Z,44.33
2023-03-23T19:01:22.485Z,44.32
2023-03-23T19:03:50.723Z,44.41
2023-03-23T19:06:24.807Z,44.67
2023-03-23T19:08:53.621Z,44.99
2023-03-23T19:11:25.433Z,45.17
2023-03-23T19:14:02.598Z,45.33
2023-03-23T19:16:32.909Z,45.70
2023-03-23T19:19:06.312Z,46.08
2023-03-23T19:21:35.898Z,46.31
2023-03-23T19:24:04.047Z,46.51
2023-03-23T19:26:43.431Z,46.59
2023-03-23T19:29:25.295Z,46.82
2023-03-23T19:32:01.572Z,47.21
2023-03-23T19:34:31.084Z,47.19
2023-03-23T19:37:05.381Z,47.22
2023-03-23T19:39:36.177Z,47.17
2023-03-23T19:42:06.323Z,47.19
2023-03-23T19:44:34.935Z,47.25
2023-03-23T19:47:04.176Z,47.35
2023-03-23T19:49:37.259Z,47.40
2023-03-23T19:52:11.994Z,47.42
2023-03-23T19:54:42.207Z,47.40
2023-03-23T19:57:11.917Z,47.42
2023-03-23T19:59:40.476Z,47.32
2023-03-23T20:02:11.677Z,47.17
2023-03-23T20:04:41.540Z,47.09
2023-03-23T20:07:10.235Z,47.05
2023-03-23T20:09:39.042Z,47.01
2023-03-23T20:12:10.795Z,46.89
2023-03-23T20:14:44.474Z,46.84
2023-03-23T20:17:14.758Z,46.88
2023-03-23T20:19:45.645Z,46.86
2023-03-23T20:22:14.845Z,46.81
2023-03-23T20:24:47.240Z,46.77
2023-03-23T20:27:15.766Z,46.73
2023-03-23T20:29:45.096Z,46.76
2023-03-23T20:32:16.536Z,46.74
2023-03-23T20:34:48.943Z,46.69
2023-03-23T20:37:20.542Z,46.64
2023-03-23T20:39:50.379Z,46.61
2023-03-23T20:42:19.382Z,46.63
2023-03-23T20:44:47.785Z,46.54
2023-03-23T20:47:18.093Z,46.59
2023-03-23T20:49:53.195Z,46.58
2023-03-23T20:52:23.539Z,46.61
2023-03-23T20:54:55.068Z,46.64
2023-03-23T20:57:23.475Z,46.66
2023-03-23T20:59:53.609Z,46.67
2023-03-23T21:02:22.370Z,46.61
2023-03-23T21:04:53.063Z,46.58
2023-03-23T21:07:24.066Z,46.67
2023-03-23T21:09:52.511Z,46.70
2023-03-23T21:12:22.945Z,46.69
2023-03-23T21:14:51.677Z,46.66
2023-03-23T21:17:20.033Z,46.70
2023-03-23T21:19:48.991Z,46.66
2023-03-23T21:22:18.856Z,46.69
2023-03-23T21:24:47.006Z,46.64
2023-03-23T21:27:16.825Z,46.65
2023-03-23T21:29:45.076Z,46.69
2023-03-23T21:32:13.781Z,46.67
2023-03-23T21:34:46.822Z,46.67
2023-03-23T21:37:16.213Z,46.67
2023-03-23T21:39:45.692Z,46.72
2023-03-23T21:42:14.272Z,46.81
2023-03-23T21:44:43.064Z,46.89
2023-03-23T21:47:14.869Z,47.00
2023-03-23T21:49:46.168Z,47.06
2023-03-23T21:52:14.329Z,47.15
2023-03-23T21:54:43.737Z,47.27
2023-03-23T21:57:12.567Z,47.37
2023-03-23T21:59:43.360Z,47.41
2023-03-23T22:02:13.380Z,47.38
2023-03-23T22:04:41.862Z,47.46
2023-03-23T22:07:15.360Z,47.53
2023-03-23T22:09:45.483Z,47.62
2023-03-23T22:12:14.291Z,47.69
2023-03-23T22:14:42.647Z,47.72
2023-03-23T22:17:12.355Z,47.75
2023-03-23T22:19:40.746Z,47.78
2023-03-23T22:22:12.595Z,47.79
2023-03-23T22:24:41.725Z,47.80
2023-03-23T22:27:10.178Z,47.80
2023-03-23T22:29:38.559Z,47.72
2023-03-23T22:32:06.849Z,47.74
2023-03-23T22:34:35.121Z,47.77
2023-03-23T22:37:05.787Z,47.76
2023-03-23T22:39:34.662Z,47.77
2023-03-23T22:42:06.610Z,47.65
2023-03-23T22:44:36.639Z,47.64
2023-03-23T22:47:05.110Z,47.58
2023-03-23T22:49:36.249Z,47.49
2023-03-23T22:52:05.058Z,47.53
2023-03-23T22:54:41.524Z,47.52
2023-03-23T22:57:11.187Z,47.42
2023-03-23T22:59:39.711Z,47.40
2023-03-23T23:02:07.880Z,47.51
2023-03-23T23:04:37.449Z,47.51
2023-03-23T23:07:12.786Z,47.58
2023-03-23T23:09:55.438Z,47.52
2023-03-23T23:12:24.531Z,47.49
2023-03-23T23:14:58.603Z,47.40
2023-03-23T23:17:27.843Z,47.36
2023-03-23T23:19:57.656Z,47.30
2023-03-23T23:22:25.794Z,47.20
2023-03-23T23:24:54.637Z,47.09
2023-03-23T23:27:22.848Z,46.97
2023-03-23T23:29:51.174Z,46.89
2023-03-23T23:32:19.803Z,46.84
2023-03-23T23:34:48.751Z,46.77
2023-03-23T23:37:17.441Z,46.66
2023-03-23T23:39:45.719Z,46.60
2023-03-23T23:42:14.113Z,46.50
2023-03-23T23:44:45.309Z,46.34
2023-03-23T23:47:18.941Z,46.14
2023-03-23T23:49:47.335Z,46.07
2023-03-23T23:52:15.818Z,45.93
2023-03-23T23:54:51.768Z,45.86
2023-03-23T23:57:19.937Z,45.68
2023-03-23T23:59:48.110Z,45.58
